NKS108 MMSD-KSAN
Flight info
| Callsign | NKS108 |
|---|---|
| Flight time | N/A |
| Altitude | 38000 |
| Route | ANEGO1A ANEGO UL312 SQN UT64 TIJ |
| Aircraft | A319/M-SDE3FGHIRWY/LB1 |
Departure
| Time | N/A |
|---|---|
| Airport | Los Cabos International Airport (MMSD) |
Arrival
| Time | 2026-05-05 03:10 |
|---|---|
| Airport | San Diego International Airport (KSAN) |
| Time | Latitude | Longitude | Altitude | Speed | Heading |
|---|---|---|---|---|---|
| 2026-05-05 02:46 | 31.23092 | -116.31010 | 31389 ft | 469 kts | 321° |
| 2026-05-05 02:46 | 31.26052 | -116.32558 | 30923 ft | 464 kts | 321° |
| 2026-05-05 02:47 | 31.28981 | -116.34092 | 30454 ft | 459 kts | 321° |
| 2026-05-05 02:47 | 31.31882 | -116.35610 | 29923 ft | 455 kts | 321° |
| 2026-05-05 02:47 | 31.34760 | -116.37115 | 29372 ft | 451 kts | 321° |
| 2026-05-05 02:47 | 31.37610 | -116.38606 | 28877 ft | 447 kts | 322° |
| 2026-05-05 02:48 | 31.40430 | -116.40084 | 28364 ft | 442 kts | 321° |
| 2026-05-05 02:48 | 31.43225 | -116.41553 | 27839 ft | 438 kts | 322° |
| 2026-05-05 02:48 | 31.45990 | -116.43007 | 27343 ft | 434 kts | 322° |
| 2026-05-05 02:48 | 31.48732 | -116.44446 | 26829 ft | 430 kts | 322° |
| 2026-05-05 02:49 | 31.51450 | -116.45865 | 26221 ft | 424 kts | 322° |
| 2026-05-05 02:49 | 31.54134 | -116.47266 | 25582 ft | 420 kts | 323° |
| 2026-05-05 02:49 | 31.56782 | -116.48653 | 24952 ft | 415 kts | 323° |
| 2026-05-05 02:49 | 31.59402 | -116.50028 | 24415 ft | 410 kts | 323° |
| 2026-05-05 02:50 | 31.61993 | -116.51390 | 23845 ft | 405 kts | 322° |
| 2026-05-05 02:50 | 31.64558 | -116.52741 | 23127 ft | 402 kts | 323° |
| 2026-05-05 02:50 | 31.67089 | -116.54075 | 22514 ft | 395 kts | 324° |
| 2026-05-05 02:50 | 31.69568 | -116.55378 | 22059 ft | 385 kts | 324° |
| 2026-05-05 02:51 | 31.71972 | -116.56636 | 21684 ft | 373 kts | 324° |
| 2026-05-05 02:51 | 31.74313 | -116.57866 | 21248 ft | 364 kts | 324° |
| 2026-05-05 02:51 | 31.76596 | -116.59071 | 20853 ft | 355 kts | 324° |
| 2026-05-05 02:51 | 31.78820 | -116.60246 | 20453 ft | 346 kts | 324° |
| 2026-05-05 02:52 | 31.81004 | -116.61369 | 20070 ft | 340 kts | 327° |
| 2026-05-05 02:52 | 31.83183 | -116.62404 | 19688 ft | 334 kts | 329° |
| 2026-05-05 02:52 | 31.85331 | -116.63381 | 19294 ft | 329 kts | 329° |
| 2026-05-05 02:52 | 31.87447 | -116.64337 | 18884 ft | 330 kts | 330° |
| 2026-05-05 02:53 | 31.89585 | -116.65309 | 18504 ft | 329 kts | 330° |
| 2026-05-05 02:53 | 31.91715 | -116.66283 | 18094 ft | 328 kts | 330° |
| 2026-05-05 02:53 | 31.93833 | -116.67256 | 17711 ft | 326 kts | 330° |
| 2026-05-05 02:53 | 31.95934 | -116.68224 | 17343 ft | 323 kts | 330° |
| 2026-05-05 02:54 | 31.98015 | -116.69185 | 16973 ft | 320 kts | 330° |
| 2026-05-05 02:54 | 32.00084 | -116.70140 | 16612 ft | 318 kts | 330° |
| 2026-05-05 02:54 | 32.02136 | -116.71088 | 16265 ft | 316 kts | 331° |
| 2026-05-05 02:54 | 32.04182 | -116.72023 | 15887 ft | 318 kts | 333° |
| 2026-05-05 02:55 | 32.06440 | -116.72437 | 15498 ft | 341 kts | 357° |
| 2026-05-05 02:55 | 32.08796 | -116.71930 | 15119 ft | 347 kts | 9° |
| 2026-05-05 02:55 | 32.11137 | -116.71213 | 14731 ft | 347 kts | 11° |
| 2026-05-05 02:55 | 32.13470 | -116.70488 | 14352 ft | 346 kts | 10° |
| 2026-05-05 02:56 | 32.15794 | -116.69764 | 13983 ft | 345 kts | 11° |
| 2026-05-05 02:56 | 32.20217 | -116.68388 | 13190 ft | 341 kts | 11° |
| 2026-05-05 02:56 | 32.22504 | -116.67678 | 12776 ft | 339 kts | 11° |
| 2026-05-05 02:57 | 32.24780 | -116.66973 | 12370 ft | 337 kts | 11° |
| 2026-05-05 02:57 | 32.27048 | -116.66274 | 11967 ft | 336 kts | 10° |
| 2026-05-05 02:57 | 32.29301 | -116.65578 | 11578 ft | 333 kts | 11° |
| 2026-05-05 02:57 | 32.31541 | -116.64887 | 11183 ft | 332 kts | 10° |
| 2026-05-05 02:58 | 32.33768 | -116.64262 | 10786 ft | 325 kts | 2° |
| 2026-05-05 02:58 | 32.35997 | -116.64270 | 10413 ft | 318 kts | 351° |
| 2026-05-05 02:58 | 32.38193 | -116.64454 | 10034 ft | 315 kts | 351° |
| 2026-05-05 02:58 | 32.40364 | -116.64652 | 9627 ft | 313 kts | 351° |
| 2026-05-05 02:59 | 32.42525 | -116.64858 | 9201 ft | 308 kts | 351° |
| 2026-05-05 02:59 | 32.44637 | -116.65064 | 8787 ft | 302 kts | 351° |
| 2026-05-05 02:59 | 32.46716 | -116.65273 | 8415 ft | 297 kts | 351° |
| 2026-05-05 02:59 | 32.48749 | -116.65476 | 8109 ft | 289 kts | 351° |
| 2026-05-05 03:00 | 32.50734 | -116.65675 | 7806 ft | 285 kts | 351° |
| 2026-05-05 03:00 | 32.52602 | -116.66159 | 7524 ft | 273 kts | 330° |
| 2026-05-05 03:00 | 32.54090 | -116.67478 | 7250 ft | 259 kts | 312° |
| 2026-05-05 03:00 | 32.55347 | -116.68979 | 7003 ft | 254 kts | 310° |
| 2026-05-05 03:01 | 32.56558 | -116.70463 | 6759 ft | 248 kts | 310° |
| 2026-05-05 03:01 | 32.57722 | -116.71915 | 6520 ft | 243 kts | 311° |
| 2026-05-05 03:01 | 32.58874 | -116.73364 | 6266 ft | 240 kts | 310° |
| 2026-05-05 03:01 | 32.60018 | -116.74782 | 6009 ft | 238 kts | 310° |
| 2026-05-05 03:02 | 32.61151 | -116.76195 | 5730 ft | 234 kts | 310° |
| 2026-05-05 03:02 | 32.62257 | -116.77579 | 5474 ft | 229 kts | 310° |
| 2026-05-05 03:02 | 32.63328 | -116.78954 | 5262 ft | 223 kts | 306° |
| 2026-05-05 03:02 | 32.63980 | -116.80563 | 5196 ft | 217 kts | 285° |
| 2026-05-05 03:03 | 32.64399 | -116.82286 | 5200 ft | 218 kts | 285° |
| 2026-05-05 03:03 | 32.64829 | -116.84047 | 5201 ft | 220 kts | 285° |
| 2026-05-05 03:03 | 32.65255 | -116.85779 | 5114 ft | 215 kts | 285° |
| 2026-05-05 03:03 | 32.65665 | -116.87449 | 5003 ft | 205 kts | 285° |
| 2026-05-05 03:04 | 32.66046 | -116.88998 | 4968 ft | 188 kts | 285° |
| 2026-05-05 03:04 | 32.66412 | -116.90494 | 4601 ft | 191 kts | 285° |
| 2026-05-05 03:04 | 32.66787 | -116.92025 | 4225 ft | 200 kts | 284° |
| 2026-05-05 03:04 | 32.67190 | -116.93671 | 3844 ft | 211 kts | 285° |
| 2026-05-05 03:05 | 32.67602 | -116.95352 | 3531 ft | 217 kts | 285° |
| 2026-05-05 03:05 | 32.68024 | -116.97074 | 3239 ft | 212 kts | 284° |
| 2026-05-05 03:05 | 32.68432 | -116.98745 | 2971 ft | 208 kts | 284° |
| 2026-05-05 03:05 | 32.68819 | -117.00326 | 2821 ft | 197 kts | 285° |
| 2026-05-05 03:06 | 32.69182 | -117.01811 | 2822 ft | 177 kts | 284° |
| 2026-05-05 03:06 | 32.69514 | -117.03171 | 2800 ft | 169 kts | 285° |
| 2026-05-05 03:06 | 32.69841 | -117.04510 | 2804 ft | 168 kts | 284° |
| 2026-05-05 03:06 | 32.70158 | -117.05811 | 2644 ft | 159 kts | 284° |
| 2026-05-05 03:07 | 32.70452 | -117.07014 | 2459 ft | 145 kts | 283° |
| 2026-05-05 03:07 | 32.70727 | -117.08146 | 2255 ft | 140 kts | 283° |
| 2026-05-05 03:07 | 32.70997 | -117.09255 | 2055 ft | 139 kts | 284° |
| 2026-05-05 03:07 | 32.71269 | -117.10375 | 1858 ft | 141 kts | 285° |
| 2026-05-05 03:08 | 32.71531 | -117.11449 | 1627 ft | 132 kts | 284° |
| 2026-05-05 03:08 | 32.71778 | -117.12476 | 1294 ft | 127 kts | 283° |
| 2026-05-05 03:08 | 32.72031 | -117.13473 | 1017 ft | 126 kts | 283° |
| 2026-05-05 03:08 | 32.72274 | -117.14481 | 772 ft | 127 kts | 283° |
| 2026-05-05 03:09 | 32.72519 | -117.15487 | 618 ft | 127 kts | 283° |
| 2026-05-05 03:09 | 32.72760 | -117.16501 | 359 ft | 127 kts | 284° |
| 2026-05-05 03:09 | 32.73007 | -117.17515 | 150 ft | 128 kts | 284° |
| 2026-05-05 03:09 | 32.73251 | -117.18519 | 26 ft | 117 kts | 285° |
| 2026-05-05 03:10 | 32.73441 | -117.19317 | 23 ft | 80 kts | 286° |
| 2026-05-05 03:10 | 32.73546 | -117.19755 | 26 ft | 36 kts | 285° |
| 2026-05-05 03:10 | 32.73612 | -117.20030 | 25 ft | 30 kts | 287° |
| 2026-05-05 03:10 | 32.73632 | -117.20191 | 24 ft | 15 kts | 239° |
| 2026-05-05 03:11 | 32.73571 | -117.20220 | 23 ft | 5 kts | 194° |
| 2026-05-05 03:11 | 32.73569 | -117.20221 | 23 ft | 0 kts | 194° |
| 2026-05-05 03:11 | 32.73567 | -117.20221 | 23 ft | 0 kts | 194° |
| 2026-05-05 03:11 | 32.73565 | -117.20222 | 23 ft | 1 kts | 198° |
| 2026-05-05 03:12 | 32.73562 | -117.20248 | 23 ft | 5 kts | 282° |
| 2026-05-05 03:12 | 32.73576 | -117.20302 | 23 ft | 9 kts | 286° |
| 2026-05-05 03:12 | 32.73598 | -117.20389 | 23 ft | 13 kts | 286° |
| 2026-05-05 03:12 | 32.73606 | -117.20497 | 23 ft | 15 kts | 270° |
| 2026-05-05 03:13 | 32.73601 | -117.20618 | 23 ft | 12 kts | 249° |
| 2026-05-05 03:13 | 32.73536 | -117.20681 | 23 ft | 14 kts | 205° |
| 2026-05-05 03:13 | 32.73430 | -117.20690 | 23 ft | 14 kts | 181° |
| 2026-05-05 03:13 | 32.73411 | -117.20691 | 23 ft | 0 kts | 181° |